ExpreSS France — 9HA2420 — position and weather

sailwx.info

Track history (hours):
 
Tides and Currents Weather Stations Pressure Air Temp Water Temp Dewpoint Dewpoint Depression Visibility Wind Speed Wind Dir Waves Ship Positions

ExpreSS France

Last reported at 2018-Jun-16 16:03 UTC. Time now 2018-Jun-23 02:49 UTC.
Position N 19°12' W 095°44'.

Length 223 m; draft 9.4 m.

Type: Cargo ship. MMSI: 248572000.

Date/timePositionNaut miles runAvg speedWind from/ knotsBaromVisibWave heightAir tempDewpointWater temp
2018-Jun-16 16:03N 19°12' W 095°44'113.8
2018-Jun-16 16:00N 19°12' W 095°44'713.7
2018-Jun-16 15:30N 19°12' W 095°52'713.8
2018-Jun-16 15:00N 19°12' W 095°59'612.1
2018-Jun-16 14:30N 19°12' W 096°05'3 5.5
2018-Jun-16 14:00N 19°13' W 096°08'0 0.3
2018-Jun-16 13:28N 19°13' W 096°08'0 0.0
2018-Jun-16 12:58N 19°13' W 096°08'0 0.0
2018-Jun-16 12:28N 19°13' W 096°08'0 0.0
2018-Jun-16 11:58N 19°13' W 096°08'0 0.0
2018-Jun-16 11:28N 19°13' W 096°08'0 0.0
2018-Jun-16 10:58N 19°13' W 096°08'0 0.0
2018-Jun-16 10:28N 19°13' W 096°08'0 0.0
2018-Jun-16 09:58N 19°13' W 096°08'0 0.0
2018-Jun-16 09:28N 19°13' W 096°08'0 0.0
2018-Jun-16 08:43N 19°13' W 096°08'0 0.0
2018-Jun-16 08:28N 19°13' W 096°08'0 0.0
2018-Jun-16 07:58N 19°13' W 096°08'0 0.0
2018-Jun-16 07:28N 19°13' W 096°08'0 0.0
2018-Jun-16 06:58N 19°13' W 096°08'0 0.0
2018-Jun-16 06:25N 19°13' W 096°08'0 0.0
2018-Jun-16 05:55N 19°13' W 096°08'0 0.0
2018-Jun-16 05:28N 19°13' W 096°08'0 0.0
2018-Jun-16 04:58N 19°13' W 096°08'0 0.0
2018-Jun-16 04:28N 19°13' W 096°08'0 0.0
2018-Jun-16 03:58N 19°13' W 096°08'0 0.0
2018-Jun-16 03:25N 19°13' W 096°08'0 0.0
2018-Jun-16 02:52N 19°13' W 096°08'0 0.0
2018-Jun-16 02:28N 19°13' W 096°08'0 0.0
2018-Jun-16 02:01N 19°13' W 096°08'0 0.0
2018-Jun-16 01:28N 19°13' W 096°08'0 0.0
2018-Jun-16 00:58N 19°13' W 096°08'0 0.0
2018-Jun-16 00:28N 19°13' W 096°08'0 0.0
2018-Jun-15 23:58N 19°13' W 096°08'0 0.0
2018-Jun-15 23:28N 19°13' W 096°08'0 0.0
2018-Jun-15 22:58N 19°13' W 096°08'0 0.0
2018-Jun-15 22:28N 19°13' W 096°08'0 0.0
2018-Jun-15 21:58N 19°13' W 096°08'0 0.0
2018-Jun-15 21:28N 19°13' W 096°08'0 0.0
2018-Jun-15 20:58N 19°13' W 096°08'0 0.0
2018-Jun-15 20:30N 19°13' W 096°08'0 0.7
2018-Jun-15 20:00N 19°12' W 096°08'4 7.0
2018-Jun-15 19:30N 19°12' W 096°04'510.1
2018-Jun-15 18:59N 19°15' W 096°00'511.3
2018-Jun-15 18:30N 19°20' W 096°02'1 1.5
2018-Jun-15 18:00N 19°21' W 096°03'0 0.4
2018-Jun-15 17:30N 19°20' W 096°03'1 1.9
2018-Jun-15 17:00N 19°21' W 096°03'510.6
2018-Jun-15 16:29N 19°27' W 096°03'611.7
2018-Jun-15 15:59N 19°32' W 096°06'611.7
2018-Jun-15 15:30N 19°37' W 096°08'611.4
2018-Jun-15 14:57N 19°43' W 096°10'  
2018-Jun-12 02:48N 29°33' W 094°55'412.8
2018-Jun-12 02:30N 29°37' W 094°57'3 4.5
2018-Jun-12 01:56N 29°37' W 095°00'0 0.0
2018-Jun-12 01:23N 29°37' W 095°00'0 0.0
2018-Jun-12 00:59N 29°37' W 095°00'0 0.0
2018-Jun-12 00:29N 29°37' W 095°00'0 0.0
2018-Jun-11 23:59N 29°37' W 095°00'0 0.0
2018-Jun-11 23:29N 29°37' W 095°00'0 0.0
2018-Jun-11 22:59N 29°37' W 095°00'0 0.0
2018-Jun-11 22:29N 29°37' W 095°00'0 0.0
2018-Jun-11 21:59N 29°37' W 095°00'0 0.0
2018-Jun-11 21:29N 29°37' W 095°00'0 0.0
2018-Jun-11 20:59N 29°37' W 095°00'0 0.0
2018-Jun-11 20:29N 29°37' W 095°00'0 0.0
2018-Jun-11 19:59N 29°37' W 095°00'0 0.0
2018-Jun-11 19:29N 29°37' W 095°00'0 0.0
2018-Jun-11 18:59N 29°37' W 095°00'0 0.0
2018-Jun-11 18:29N 29°37' W 095°00'0 0.0
2018-Jun-11 17:59N 29°37' W 095°00'0 0.0
2018-Jun-11 17:29N 29°37' W 095°00'0 0.0
2018-Jun-11 16:59N 29°37' W 095°00'0 0.0
2018-Jun-11 16:29N 29°37' W 095°00'0 0.0
2018-Jun-11 15:59N 29°37' W 095°00'0 0.0
2018-Jun-11 15:29N 29°37' W 095°00'0 0.0
2018-Jun-11 14:59N 29°37' W 095°00'0 0.0
2018-Jun-11 14:29N 29°37' W 095°00'0 0.0
2018-Jun-11 13:59N 29°37' W 095°00'0 0.0
2018-Jun-11 13:29N 29°37' W 095°00'0 0.0
2018-Jun-11 12:59N 29°37' W 095°00'0 0.0
2018-Jun-11 12:29N 29°37' W 095°00'0 0.0
2018-Jun-11 11:59N 29°37' W 095°00'0 0.0
2018-Jun-11 11:29N 29°37' W 095°00'0 0.0
2018-Jun-11 10:56N 29°37' W 095°00'0 0.0
2018-Jun-11 10:26N 29°37' W 095°00'0 0.0
2018-Jun-11 09:56N 29°37' W 095°00'0 0.0
2018-Jun-11 09:29N 29°37' W 095°00'0 0.5
2018-Jun-11 09:00N 29°37' W 095°00'0 0.1
2018-Jun-11 08:30N 29°37' W 095°00'3 6.1
2018-Jun-11 08:00N 29°36' W 094°57'611.9
2018-Jun-11 07:27N 29°31' W 094°53'614.0
2018-Jun-11 07:00N 29°25' W 094°50'713.2
2018-Jun-11 06:30N 29°21' W 094°44'714.3
2018-Jun-11 06:00N 29°18' W 094°37'510.6
2018-Jun-11 05:30N 29°15' W 094°32'814.2
2018-Jun-11 04:56N 29°10' W 094°24'914.2
2018-Jun-11 04:19N 29°05' W 094°16'  
Track history (hours):
 
Tides and Currents Weather Stations Pressure Air Temp Water Temp Dewpoint Dewpoint Depression Visibility Wind Speed Wind Dir Waves Ship Positions

ExpreSS France

Last reported at 2018-Jun-16 16:03 UTC. Time now 2018-Jun-23 02:49 UTC.
Position N 19°12' W 095°44'.

Length 223 m; draft 9.4 m.

Type: Cargo ship. MMSI: 248572000.

Date/timePositionNaut miles runAvg speedWind from/ knotsBaromVisibWave heightAir tempDewpointWater temp
2018-Jun-16 16:03N 19°12' W 095°44'113.8
2018-Jun-16 16:00N 19°12' W 095°44'713.7
2018-Jun-16 15:30N 19°12' W 095°52'713.8
2018-Jun-16 15:00N 19°12' W 095°59'612.1
2018-Jun-16 14:30N 19°12' W 096°05'3 5.5
2018-Jun-16 14:00N 19°13' W 096°08'0 0.3
2018-Jun-16 13:28N 19°13' W 096°08'0 0.0
2018-Jun-16 12:58N 19°13' W 096°08'0 0.0
2018-Jun-16 12:28N 19°13' W 096°08'0 0.0
2018-Jun-16 11:58N 19°13' W 096°08'0 0.0
2018-Jun-16 11:28N 19°13' W 096°08'0 0.0
2018-Jun-16 10:58N 19°13' W 096°08'0 0.0
2018-Jun-16 10:28N 19°13' W 096°08'0 0.0
2018-Jun-16 09:58N 19°13' W 096°08'0 0.0
2018-Jun-16 09:28N 19°13' W 096°08'0 0.0
2018-Jun-16 08:43N 19°13' W 096°08'0 0.0
2018-Jun-16 08:28N 19°13' W 096°08'0 0.0
2018-Jun-16 07:58N 19°13' W 096°08'0 0.0
2018-Jun-16 07:28N 19°13' W 096°08'0 0.0
2018-Jun-16 06:58N 19°13' W 096°08'0 0.0
2018-Jun-16 06:25N 19°13' W 096°08'0 0.0
2018-Jun-16 05:55N 19°13' W 096°08'0 0.0
2018-Jun-16 05:28N 19°13' W 096°08'0 0.0
2018-Jun-16 04:58N 19°13' W 096°08'0 0.0
2018-Jun-16 04:28N 19°13' W 096°08'0 0.0
2018-Jun-16 03:58N 19°13' W 096°08'0 0.0
2018-Jun-16 03:25N 19°13' W 096°08'0 0.0
2018-Jun-16 02:52N 19°13' W 096°08'0 0.0
2018-Jun-16 02:28N 19°13' W 096°08'0 0.0
2018-Jun-16 02:01N 19°13' W 096°08'0 0.0
2018-Jun-16 01:28N 19°13' W 096°08'0 0.0
2018-Jun-16 00:58N 19°13' W 096°08'0 0.0
2018-Jun-16 00:28N 19°13' W 096°08'0 0.0
2018-Jun-15 23:58N 19°13' W 096°08'0 0.0
2018-Jun-15 23:28N 19°13' W 096°08'0 0.0
2018-Jun-15 22:58N 19°13' W 096°08'0 0.0
2018-Jun-15 22:28N 19°13' W 096°08'0 0.0
2018-Jun-15 21:58N 19°13' W 096°08'0 0.0
2018-Jun-15 21:28N 19°13' W 096°08'0 0.0
2018-Jun-15 20:58N 19°13' W 096°08'0 0.0
2018-Jun-15 20:30N 19°13' W 096°08'0 0.7
2018-Jun-15 20:00N 19°12' W 096°08'4 7.0
2018-Jun-15 19:30N 19°12' W 096°04'510.1
2018-Jun-15 18:59N 19°15' W 096°00'511.3
2018-Jun-15 18:30N 19°20' W 096°02'1 1.5
2018-Jun-15 18:00N 19°21' W 096°03'0 0.4
2018-Jun-15 17:30N 19°20' W 096°03'1 1.9
2018-Jun-15 17:00N 19°21' W 096°03'510.6
2018-Jun-15 16:29N 19°27' W 096°03'611.7
2018-Jun-15 15:59N 19°32' W 096°06'611.7
2018-Jun-15 15:30N 19°37' W 096°08'611.4
2018-Jun-15 14:57N 19°43' W 096°10'  
2018-Jun-12 02:48N 29°33' W 094°55'412.8
2018-Jun-12 02:30N 29°37' W 094°57'3 4.5
2018-Jun-12 01:56N 29°37' W 095°00'0 0.0
2018-Jun-12 01:23N 29°37' W 095°00'0 0.0
2018-Jun-12 00:59N 29°37' W 095°00'0 0.0
2018-Jun-12 00:29N 29°37' W 095°00'0 0.0
2018-Jun-11 23:59N 29°37' W 095°00'0 0.0
2018-Jun-11 23:29N 29°37' W 095°00'0 0.0
2018-Jun-11 22:59N 29°37' W 095°00'0 0.0
2018-Jun-11 22:29N 29°37' W 095°00'0 0.0
2018-Jun-11 21:59N 29°37' W 095°00'0 0.0
2018-Jun-11 21:29N 29°37' W 095°00'0 0.0
2018-Jun-11 20:59N 29°37' W 095°00'0 0.0
2018-Jun-11 20:29N 29°37' W 095°00'0 0.0
2018-Jun-11 19:59N 29°37' W 095°00'0 0.0
2018-Jun-11 19:29N 29°37' W 095°00'0 0.0
2018-Jun-11 18:59N 29°37' W 095°00'0 0.0
2018-Jun-11 18:29N 29°37' W 095°00'0 0.0
2018-Jun-11 17:59N 29°37' W 095°00'0 0.0
2018-Jun-11 17:29N 29°37' W 095°00'0 0.0
2018-Jun-11 16:59N 29°37' W 095°00'0 0.0
2018-Jun-11 16:29N 29°37' W 095°00'0 0.0
2018-Jun-11 15:59N 29°37' W 095°00'0 0.0
2018-Jun-11 15:29N 29°37' W 095°00'0 0.0
2018-Jun-11 14:59N 29°37' W 095°00'0 0.0
2018-Jun-11 14:29N 29°37' W 095°00'0 0.0
2018-Jun-11 13:59N 29°37' W 095°00'0 0.0
2018-Jun-11 13:29N 29°37' W 095°00'0 0.0
2018-Jun-11 12:59N 29°37' W 095°00'0 0.0
2018-Jun-11 12:29N 29°37' W 095°00'0 0.0
2018-Jun-11 11:59N 29°37' W 095°00'0 0.0
2018-Jun-11 11:29N 29°37' W 095°00'0 0.0
2018-Jun-11 10:56N 29°37' W 095°00'0 0.0
2018-Jun-11 10:26N 29°37' W 095°00'0 0.0
2018-Jun-11 09:56N 29°37' W 095°00'0 0.0
2018-Jun-11 09:29N 29°37' W 095°00'0 0.5
2018-Jun-11 09:00N 29°37' W 095°00'0 0.1
2018-Jun-11 08:30N 29°37' W 095°00'3 6.1
2018-Jun-11 08:00N 29°36' W 094°57'611.9
2018-Jun-11 07:27N 29°31' W 094°53'614.0
2018-Jun-11 07:00N 29°25' W 094°50'713.2
2018-Jun-11 06:30N 29°21' W 094°44'714.3
2018-Jun-11 06:00N 29°18' W 094°37'510.6
2018-Jun-11 05:30N 29°15' W 094°32'814.2
2018-Jun-11 04:56N 29°10' W 094°24'914.2
2018-Jun-11 04:19N 29°05' W 094°16'  

Dump ship's entire track history